ソウル/仁川 の空港の天気 - METARとTAF

仁川国際空港 ( RKSI / ICN ) - 韓国 仁川広域市 (ソウル特別市近郊)
飛行場実況気象(Metar)
観測時間03/23 04:00 KST (03/22 19:00 UTC)
風向・風速西南西 1m/s
視程10km以上
天気現象
なし
気温1℃
湿度64%
気圧1022hPa
METARRKSI 221900Z 24002KT CAVOK 01/M05 Q1022 NOSIG
過去の天気等 Google飛行場航空写真 Wunderground天気予報

過去48時間のMETAR

飛行場予報(TAF)
発表時間: 3/23 02:00 KST (3/22 17:00 UTC)
予報対象時間: 23日3時 KST ~ 24日9時 KST
風向・風速北北東 3m/s
視程10km以上
なし
23日5時 KST ~ 23日6時 KST に徐々に
風向・風速南南西 4m/s
23日9時 KST ~ 23日10時 KST に徐々に
風向・風速西北西 6m/s
23日11時 KST ~ 23日13時 KST に一時的に
風向・風速西北西 10m/s 瞬間風速 18m/s
視程2500m
天気現象弱い雷雨
少しの積乱雲 雲底高度 300m
全天の8割程度の雲 雲底高度 760m
23日14時 KST ~ 23日15時 KST に徐々に
風向・風速北西 9m/s 瞬間風速 15m/s
23日23時 KST ~ 23日24時 KST に徐々に
風向・風速北西 6m/s
TAF RKSI 221700Z 2218/2324 03006KT CAVOK TN00/2221Z TX07/2308Z TNM00/2321Z
BECMG 2220/2221 20008KT
BECMG 2300/2301 30012KT
TEMPO 2302/2304 29020G35KT 2500 -TSRA FEW010CB BKN025
BECMG 2305/2306 32018G30KT
BECMG 2314/2315 32012KT